Time;durP1;ratioP1;P1;durP2;ratioP2;P2;SDS_P1;SDS_P2;PMS_P1;PMS_P2;Temp;Humidity;BMP_temperature;BMP_pressure;BME280_temperature;BME280_humidity;BME280_pressure;Samples;Min_cycle;Max_cycle;Signal;HPM_P1;HPM_P2
2023/05/30 00:00:14;;;;;;;4.57;2.10;;;;;;;;;;5077106;28;20522;-59
2023/05/30 00:02:42;;;;;;;1.73;1.60;;;;;;;;;;5076863;28;20448;-60
2023/05/30 00:05:12;;;;;;;2.67;2.03;;;;;;;;;;5076704;28;20882;-60
2023/05/30 00:07:43;;;;;;;5.50;2.50;;;;;;;;;;5076927;28;20934;-60
2023/05/30 00:10:10;;;;;;;3.83;1.93;;;;;;;;;;5077066;28;20542;-60
2023/05/30 00:12:37;;;;;;;5.93;2.80;;;;;;;;;;5076489;28;20483;-60
2023/05/30 00:15:04;;;;;;;3.23;2.10;;;;;;;;;;5076455;28;20448;-60
2023/05/30 00:17:35;;;;;;;4.80;2.40;;;;;;;;;;5076769;28;20451;-60
2023/05/30 00:20:03;;;;;;;5.17;2.50;;;;;;;;;;5076403;28;20471;-60
2023/05/30 00:22:30;;;;;;;5.33;2.50;;;;;;;;;;5076372;28;20474;-60
2023/05/30 00:24:59;;;;;;;3.93;2.03;;;;;;;;;;5076409;28;20878;-60
2023/05/30 00:27:26;;;;;;;4.17;2.33;;;;;;;;;;5076062;28;20942;-60
2023/05/30 00:29:53;;;;;;;3.97;2.70;;;;;;;;;;5076069;28;20448;-60
2023/05/30 00:32:20;;;;;;;3.73;2.77;;;;;;;;;;5076269;28;20537;-59
2023/05/30 00:34:49;;;;;;;5.60;2.40;;;;;;;;;;5076232;28;20455;-60
2023/05/30 00:37:17;;;;;;;3.77;2.03;;;;;;;;;;5076460;28;20538;-60
2023/05/30 00:39:44;;;;;;;5.50;3.10;;;;;;;;;;5076395;28;20454;-60
2023/05/30 00:42:12;;;;;;;4.83;2.20;;;;;;;;;;5076272;28;20475;-60
2023/05/30 00:44:39;;;;;;;6.47;2.30;;;;;;;;;;5076436;28;20456;-60
2023/05/30 00:47:06;;;;;;;3.83;2.60;;;;;;;;;;5076117;28;20544;-60
2023/05/30 00:49:34;;;;;;;3.73;1.83;;;;;;;;;;5075741;28;20475;-60
2023/05/30 00:52:03;;;;;;;4.20;2.40;;;;;;;;;;5075560;28;20448;-60
2023/05/30 00:54:30;;;;;;;4.53;2.10;;;;;;;;;;5075524;28;20484;-60
2023/05/30 00:56:57;;;;;;;4.80;2.00;;;;;;;;;;5076126;28;20895;-60
2023/05/30 00:59:25;;;;;;;7.40;2.83;;;;;;;;;;5075741;28;20419;-60
2023/05/30 01:01:53;;;;;;;5.37;2.40;;;;;;;;;;5075400;28;20451;-60
2023/05/30 01:04:19;;;;;;;5.20;2.27;;;;;;;;;;5075317;28;20448;-60
2023/05/30 01:06:47;;;;;;;3.10;2.03;;;;;;;;;;5075532;28;20447;-60
2023/05/30 01:09:15;;;;;;;3.00;2.30;;;;;;;;;;5075550;28;20451;-60
2023/05/30 01:11:48;;;;;;;5.63;2.10;;;;;;;;;;5075293;28;20818;-60
2023/05/30 01:14:18;;;;;;;4.50;2.80;;;;;;;;;;5075116;28;20949;-60
2023/05/30 01:16:47;;;;;;;3.77;2.40;;;;;;;;;;5075357;28;20438;-60
2023/05/30 01:19:23;;;;;;;4.87;2.73;;;;;;;;;;5075230;28;20422;-60
2023/05/30 01:21:52;;;;;;;3.70;2.30;;;;;;;;;;5075664;28;20766;-60
2023/05/30 01:24:27;;;;;;;3.90;1.97;;;;;;;;;;5075466;28;20482;-60
2023/05/30 01:27:04;;;;;;;4.67;1.90;;;;;;;;;;5075275;28;20450;-59
2023/05/30 01:29:34;;;;;;;4.77;2.30;;;;;;;;;;5075481;28;20867;-59
2023/05/30 01:32:02;;;;;;;3.60;2.17;;;;;;;;;;5075352;28;20426;-60
2023/05/30 01:34:29;;;;;;;4.47;2.60;;;;;;;;;;5075131;28;20484;-59
2023/05/30 01:36:56;;;;;;;4.80;2.60;;;;;;;;;;5075050;28;20427;-59
2023/05/30 01:39:23;;;;;;;3.57;2.13;;;;;;;;;;5075108;28;20516;-59
2023/05/30 01:41:55;;;;;;;2.40;2.00;;;;;;;;;;5075141;28;20455;-59
2023/05/30 01:44:25;;;;;;;4.97;2.30;;;;;;;;;;5074918;28;20522;-59
2023/05/30 01:47:00;;;;;;;5.33;2.93;;;;;;;;;;5074820;28;20936;-59
2023/05/30 01:49:31;;;;;;;3.50;2.20;;;;;;;;;;5074951;28;20429;-60
2023/05/30 01:52:00;;;;;;;6.20;2.40;;;;;;;;;;5074989;28;20447;-59
2023/05/30 01:54:28;;;;;;;3.10;2.30;;;;;;;;;;5074881;28;21016;-59
2023/05/30 01:56:58;;;;;;;3.23;2.43;;;;;;;;;;5074825;28;20454;-60
2023/05/30 01:59:25;;;;;;;3.70;2.43;;;;;;;;;;5074807;28;20474;-59
2023/05/30 02:01:53;;;;;;;3.83;2.53;;;;;;;;;;5074179;28;20484;-59
2023/05/30 02:04:22;;;;;;;2.90;2.20;;;;;;;;;;5074563;28;20534;-60
2023/05/30 02:06:49;;;;;;;4.40;3.33;;;;;;;;;;5074712;28;20872;-60
2023/05/30 02:09:16;;;;;;;4.93;2.40;;;;;;;;;;5074519;28;20494;-60
2023/05/30 02:11:43;;;;;;;3.50;2.63;;;;;;;;;;5074513;28;20448;-60
2023/05/30 02:14:11;;;;;;;5.63;2.87;;;;;;;;;;5074223;28;20514;-60
2023/05/30 02:16:38;;;;;;;6.17;2.90;;;;;;;;;;5074275;28;20443;-60
2023/05/30 02:19:06;;;;;;;4.50;2.40;;;;;;;;;;5074176;28;20429;-60
2023/05/30 02:21:35;;;;;;;6.60;2.47;;;;;;;;;;5074379;28;20512;-60
2023/05/30 02:24:03;;;;;;;4.33;2.47;;;;;;;;;;5074208;28;20448;-59
2023/05/30 02:26:30;;;;;;;4.30;2.00;;;;;;;;;;5074286;28;20493;-59
2023/05/30 02:28:57;;;;;;;2.63;1.83;;;;;;;;;;5074199;28;20427;-59
2023/05/30 02:31:25;;;;;;;3.30;1.90;;;;;;;;;;5073905;28;20536;-59
2023/05/30 02:33:52;;;;;;;4.80;2.70;;;;;;;;;;5073760;28;20991;-60
2023/05/30 02:36:19;;;;;;;3.40;1.90;;;;;;;;;;5073954;28;20490;-59
2023/05/30 02:38:48;;;;;;;4.93;2.50;;;;;;;;;;5073779;28;20487;-59
2023/05/30 02:41:15;;;;;;;9.33;2.73;;;;;;;;;;5073817;28;20946;-59
2023/05/30 02:43:42;;;;;;;3.57;2.57;;;;;;;;;;5073903;28;20430;-60
2023/05/30 02:46:10;;;;;;;3.50;2.20;;;;;;;;;;5074312;28;20487;-59
2023/05/30 02:48:37;;;;;;;5.03;2.80;;;;;;;;;;5073481;28;20509;-59
2023/05/30 02:51:04;;;;;;;3.40;2.30;;;;;;;;;;5073602;28;20444;-59
2023/05/30 02:53:31;;;;;;;5.50;2.47;;;;;;;;;;5073109;28;20454;-59
2023/05/30 02:55:59;;;;;;;9.87;2.67;;;;;;;;;;5073711;28;20966;-59
2023/05/30 02:58:26;;;;;;;5.10;2.53;;;;;;;;;;5073861;28;20456;-59
2023/05/30 03:00:53;;;;;;;3.40;2.40;;;;;;;;;;5073865;28;20473;-59
2023/05/30 03:03:21;;;;;;;5.47;2.53;;;;;;;;;;5073315;28;20887;-60
2023/05/30 03:05:49;;;;;;;5.47;2.70;;;;;;;;;;5073127;28;20429;-60
2023/05/30 03:08:16;;;;;;;4.87;3.50;;;;;;;;;;5073117;28;20451;-61
2023/05/30 03:10:43;;;;;;;4.40;2.60;;;;;;;;;;5073248;28;20862;-60
2023/05/30 03:13:11;;;;;;;8.20;2.40;;;;;;;;;;5072280;28;20878;-60
2023/05/30 03:15:40;;;;;;;4.90;3.10;;;;;;;;;;5073183;28;20886;-61
2023/05/30 03:18:07;;;;;;;7.20;2.97;;;;;;;;;;5073385;28;20437;-60
2023/05/30 03:20:34;;;;;;;7.43;2.73;;;;;;;;;;5072991;28;20486;-60
2023/05/30 03:23:01;;;;;;;4.87;2.73;;;;;;;;;;5073314;28;20832;-60
2023/05/30 03:25:29;;;;;;;6.60;3.10;;;;;;;;;;5072957;28;20904;-60
2023/05/30 03:27:56;;;;;;;5.43;2.47;;;;;;;;;;5073152;28;20501;-60
2023/05/30 03:30:27;;;;;;;6.80;2.33;;;;;;;;;;5072779;28;20429;-60
2023/05/30 03:32:56;;;;;;;5.57;2.77;;;;;;;;;;5073711;28;20845;-60
2023/05/30 03:35:24;;;;;;;5.53;2.60;;;;;;;;;;5073177;28;20454;-60
2023/05/30 03:37:51;;;;;;;7.40;2.60;;;;;;;;;;5072682;28;20454;-60
2023/05/30 03:40:18;;;;;;;4.63;2.80;;;;;;;;;;5073178;28;20434;-60
2023/05/30 03:42:45;;;;;;;6.73;3.57;;;;;;;;;;5072888;28;20532;-60
2023/05/30 03:45:13;;;;;;;8.10;3.00;;;;;;;;;;5073281;28;20456;-60
2023/05/30 03:47:41;;;;;;;2.50;2.30;;;;;;;;;;5073422;28;20434;-60
2023/05/30 03:50:08;;;;;;;10.50;3.53;;;;;;;;;;5073218;28;20483;-60
2023/05/30 03:52:41;;;;;;;7.47;3.10;;;;;;;;;;5072751;28;20429;-60
2023/05/30 03:55:10;;;;;;;6.50;3.20;;;;;;;;;;5072585;28;20537;-60
2023/05/30 03:57:37;;;;;;;5.90;2.87;;;;;;;;;;5073077;28;20426;-60
2023/05/30 04:00:05;;;;;;;4.87;2.63;;;;;;;;;;5072654;28;20846;-60
2023/05/30 04:02:32;;;;;;;9.87;3.33;;;;;;;;;;5072661;28;20441;-60
2023/05/30 04:05:00;;;;;;;11.57;3.63;;;;;;;;;;5072534;28;20448;-60
2023/05/30 04:07:27;;;;;;;8.83;3.30;;;;;;;;;;5072537;28;20435;-60
2023/05/30 04:09:54;;;;;;;4.70;2.80;;;;;;;;;;5072718;28;20483;-60
2023/05/30 04:12:21;;;;;;;8.50;3.10;;;;;;;;;;5073011;28;20454;-60
2023/05/30 04:14:48;;;;;;;4.57;2.93;;;;;;;;;;5072464;28;20479;-61
2023/05/30 04:17:15;;;;;;;5.50;3.17;;;;;;;;;;5072709;28;20810;-60
2023/05/30 04:19:42;;;;;;;4.23;3.10;;;;;;;;;;5072326;28;20516;-60
2023/05/30 04:22:10;;;;;;;6.63;2.40;;;;;;;;;;5072534;28;20472;-61
2023/05/30 04:24:37;;;;;;;12.07;3.93;;;;;;;;;;5072850;28;21005;-60
2023/05/30 04:27:05;;;;;;;5.67;2.90;;;;;;;;;;5076065;28;20928;-60
2023/05/30 04:29:32;;;;;;;8.90;3.30;;;;;;;;;;5076297;28;20479;-60
2023/05/30 04:31:59;;;;;;;7.50;2.80;;;;;;;;;;5076424;28;20451;-61
2023/05/30 04:34:26;;;;;;;7.50;3.00;;;;;;;;;;5076135;28;20459;-61
2023/05/30 04:36:53;;;;;;;14.33;5.13;;;;;;;;;;5075833;28;20425;-60
2023/05/30 04:39:22;;;;;;;4.63;2.77;;;;;;;;;;5076058;28;20454;-60
2023/05/30 04:41:54;;;;;;;4.40;2.50;;;;;;;;;;5075896;28;20460;-60
2023/05/30 04:44:22;;;;;;;10.60;3.60;;;;;;;;;;5075857;28;20530;-60
2023/05/30 04:46:49;;;;;;;5.57;2.60;;;;;;;;;;5075843;28;20422;-60
2023/05/30 04:49:16;;;;;;;5.70;2.63;;;;;;;;;;5075677;28;20448;-60
2023/05/30 04:51:43;;;;;;;3.00;2.80;;;;;;;;;;5075742;28;20548;-60
2023/05/30 04:54:10;;;;;;;7.07;2.50;;;;;;;;;;5075426;28;20501;-60
2023/05/30 04:56:39;;;;;;;8.20;2.20;;;;;;;;;;5075778;28;20451;-60
2023/05/30 04:59:06;;;;;;;3.10;2.10;;;;;;;;;;5075660;28;20444;-60
2023/05/30 05:01:35;;;;;;;5.07;2.30;;;;;;;;;;5075728;28;20959;-60
2023/05/30 05:04:02;;;;;;;5.40;2.00;;;;;;;;;;5075529;28;20479;-60
2023/05/30 05:06:29;;;;;;;4.10;3.27;;;;;;;;;;5075589;28;20444;-60
2023/05/30 05:08:56;;;;;;;3.20;2.20;;;;;;;;;;5075368;28;20435;-60
2023/05/30 05:11:23;;;;;;;5.13;3.13;;;;;;;;;;5075428;28;20551;-60
2023/05/30 05:13:52;;;;;;;3.17;2.07;;;;;;;;;;5075354;28;20454;-60
2023/05/30 05:16:19;;;;;;;9.10;1.87;;;;;;;;;;5075373;28;20554;-60
2023/05/30 05:18:46;;;;;;;3.77;2.33;;;;;;;;;;5075536;28;20543;-60
2023/05/30 05:21:14;;;;;;;3.83;2.13;;;;;;;;;;5075255;28;21025;-60
2023/05/30 05:23:41;;;;;;;3.43;1.93;;;;;;;;;;5075129;28;20460;-60
2023/05/30 05:26:07;;;;;;;6.97;2.27;;;;;;;;;;5075085;28;20457;-60
2023/05/30 05:28:35;;;;;;;3.60;2.30;;;;;;;;;;5074832;28;21024;-60
2023/05/30 05:34:00;;;;;;;10.03;2.20;;;;;;;;;;5073039;28;20477;-62
2023/05/30 05:36:27;;;;;;;6.93;2.37;;;;;;;;;;5074092;28;20458;-61
2023/05/30 05:38:54;;;;;;;5.10;1.30;;;;;;;;;;5074666;28;20448;-61
2023/05/30 05:41:21;;;;;;;3.80;1.73;;;;;;;;;;5074995;28;21033;-61
2023/05/30 05:43:48;;;;;;;4.23;1.93;;;;;;;;;;5074729;28;20452;-61
2023/05/30 05:46:16;;;;;;;3.43;1.97;;;;;;;;;;5074477;28;20464;-61
2023/05/30 05:48:43;;;;;;;4.73;2.27;;;;;;;;;;5074600;28;20486;-61
2023/05/30 05:51:11;;;;;;;1.97;1.70;;;;;;;;;;5074340;28;20835;-61
2023/05/30 05:53:55;;;;;;;3.10;1.80;;;;;;;;;;5074128;28;20806;-62
2023/05/30 05:56:22;;;;;;;5.40;1.83;;;;;;;;;;5073960;28;20870;-60
2023/05/30 05:58:49;;;;;;;4.87;2.40;;;;;;;;;;5074182;28;20445;-60
2023/05/30 06:01:17;;;;;;;6.23;2.57;;;;;;;;;;5074230;28;20451;-60
2023/05/30 06:03:44;;;;;;;10.53;2.67;;;;;;;;;;5074142;28;20535;-60
2023/05/30 06:06:11;;;;;;;7.03;1.90;;;;;;;;;;5074380;28;20448;-59
2023/05/30 06:08:38;;;;;;;3.50;1.97;;;;;;;;;;5074309;28;20471;-60
2023/05/30 06:11:05;;;;;;;4.03;1.97;;;;;;;;;;5074194;28;20461;-60
2023/05/30 06:13:32;;;;;;;6.90;2.37;;;;;;;;;;5074074;28;20446;-60
2023/05/30 06:16:00;;;;;;;4.40;1.80;;;;;;;;;;5074020;28;20488;-60
2023/05/30 06:18:28;;;;;;;4.33;1.90;;;;;;;;;;5073735;28;20449;-60
2023/05/30 06:20:55;;;;;;;4.27;2.23;;;;;;;;;;5074122;28;20548;-61
2023/05/30 06:23:22;;;;;;;4.20;2.10;;;;;;;;;;5073946;28;20488;-61
2023/05/30 06:25:49;;;;;;;4.37;2.67;;;;;;;;;;5073935;28;20456;-60
2023/05/30 06:28:16;;;;;;;3.07;1.60;;;;;;;;;;5073800;28;20449;-61
2023/05/30 06:30:43;;;;;;;4.60;2.00;;;;;;;;;;5073594;28;20433;-61
2023/05/30 06:33:10;;;;;;;7.80;2.17;;;;;;;;;;5073640;28;20453;-61
2023/05/30 06:35:39;;;;;;;5.07;2.20;;;;;;;;;;5073620;28;20901;-60
2023/05/30 06:38:06;;;;;;;4.47;1.80;;;;;;;;;;5073702;28;20908;-60
2023/05/30 06:40:32;;;;;;;3.70;2.27;;;;;;;;;;5073546;28;20533;-60
2023/05/30 06:42:59;;;;;;;6.93;2.67;;;;;;;;;;5073425;28;20532;-60
2023/05/30 06:45:26;;;;;;;5.63;2.23;;;;;;;;;;5073443;28;20800;-60
2023/05/30 06:47:53;;;;;;;6.07;2.00;;;;;;;;;;5073397;28;20454;-60
2023/05/30 06:50:20;;;;;;;4.27;2.43;;;;;;;;;;5073461;28;20506;-61
2023/05/30 06:52:49;;;;;;;3.33;1.93;;;;;;;;;;5073410;28;20449;-61
2023/05/30 06:55:16;;;;;;;6.53;2.13;;;;;;;;;;5072924;28;20901;-62
2023/05/30 06:57:43;;;;;;;7.27;1.90;;;;;;;;;;5073234;28;20445;-61
2023/05/30 07:00:11;;;;;;;3.10;1.80;;;;;;;;;;5073209;28;20813;-61
2023/05/30 07:02:39;;;;;;;5.30;2.30;;;;;;;;;;5073182;28;20813;-61
2023/05/30 07:05:07;;;;;;;3.53;1.67;;;;;;;;;;5073079;28;20537;-59
2023/05/30 07:07:34;;;;;;;3.80;1.83;;;;;;;;;;5073539;28;20455;-59
2023/05/30 07:10:02;;;;;;;5.17;1.80;;;;;;;;;;5073642;28;20812;-60
2023/05/30 07:12:29;;;;;;;2.83;1.77;;;;;;;;;;5078425;28;20472;-62
2023/05/30 07:14:56;;;;;;;5.43;1.60;;;;;;;;;;5092947;28;20557;-64
2023/05/30 07:17:23;;;;;;;6.20;1.83;;;;;;;;;;5093179;28;20448;-64
2023/05/30 07:19:50;;;;;;;1.93;1.43;;;;;;;;;;5093201;28;20445;-62
2023/05/30 07:22:17;;;;;;;5.27;1.80;;;;;;;;;;5092960;28;20514;-62
2023/05/30 07:24:44;;;;;;;2.70;1.43;;;;;;;;;;5093034;28;20460;-62
2023/05/30 07:27:12;;;;;;;2.00;1.40;;;;;;;;;;5092675;28;20539;-62
2023/05/30 07:29:39;;;;;;;1.93;1.10;;;;;;;;;;5092798;28;21012;-60
2023/05/30 07:32:06;;;;;;;3.57;1.53;;;;;;;;;;5092760;28;20485;-61
2023/05/30 07:34:33;;;;;;;3.60;1.70;;;;;;;;;;5092736;28;20489;-61
2023/05/30 07:37:00;;;;;;;2.60;1.57;;;;;;;;;;5092719;28;20545;-61
2023/05/30 07:39:27;;;;;;;1.93;1.30;;;;;;;;;;5092409;28;20485;-60
2023/05/30 07:41:54;;;;;;;2.90;1.53;;;;;;;;;;5092875;28;20485;-59
2023/05/30 07:44:22;;;;;;;6.73;1.77;;;;;;;;;;5092857;28;20510;-60
2023/05/30 07:46:54;;;;;;;4.77;1.90;;;;;;;;;;5092648;28;20464;-58
2023/05/30 07:49:21;;;;;;;3.23;1.53;;;;;;;;;;5092704;28;20933;-60
2023/05/30 07:51:48;;;;;;;6.13;1.50;;;;;;;;;;5092204;28;20545;-60
2023/05/30 07:54:17;;;;;;;5.70;1.43;;;;;;;;;;5092346;28;20474;-59
2023/05/30 07:56:44;;;;;;;3.53;1.80;;;;;;;;;;5092872;28;20588;-57
2023/05/30 07:59:11;;;;;;;4.83;1.60;;;;;;;;;;5080176;28;21018;-58
2023/05/30 08:01:46;;;;;;;2.50;1.40;;;;;;;;;;5075101;28;20454;-57
2023/05/30 08:04:13;;;;;;;5.30;1.67;;;;;;;;;;5075702;28;20450;-57
2023/05/30 08:06:42;;;;;;;3.93;1.67;;;;;;;;;;5074922;28;20455;-57
2023/05/30 08:09:11;;;;;;;2.03;1.33;;;;;;;;;;5075944;28;20503;-57
2023/05/30 08:11:38;;;;;;;6.17;1.90;;;;;;;;;;5075645;28;20949;-58
2023/05/30 08:14:05;;;;;;;3.50;1.80;;;;;;;;;;5075959;28;20458;-59
2023/05/30 08:16:34;;;;;;;3.87;1.90;;;;;;;;;;5075725;28;20492;-58
2023/05/30 08:19:03;;;;;;;2.27;1.27;;;;;;;;;;5075744;28;20955;-58
2023/05/30 08:21:31;;;;;;;2.43;1.30;;;;;;;;;;5055951;28;20892;-59
2023/05/30 08:24:00;;;;;;;2.17;1.43;;;;;;;;;;5056003;28;20529;-59
2023/05/30 08:26:30;;;;;;;3.13;1.33;;;;;;;;;;5059766;28;20446;-59
2023/05/30 08:28:59;;;;;;;2.80;1.50;;;;;;;;;;5075494;28;20457;-59
2023/05/30 08:31:27;;;;;;;1.77;1.43;;;;;;;;;;5075389;28;21017;-60
2023/05/30 08:33:55;;;;;;;3.47;1.60;;;;;;;;;;5075585;28;20501;-59
2023/05/30 08:36:24;;;;;;;5.63;1.60;;;;;;;;;;5075637;28;20578;-60
2023/05/30 08:38:54;;;;;;;3.83;1.30;;;;;;;;;;5075797;28;20504;-58
2023/05/30 08:41:21;;;;;;;5.80;1.50;;;;;;;;;;5075846;28;20813;-60
2023/05/30 08:43:49;;;;;;;3.10;2.00;;;;;;;;;;5075656;28;20482;-60
2023/05/30 08:46:17;;;;;;;2.33;1.47;;;;;;;;;;5075493;28;20516;-60
2023/05/30 08:48:45;;;;;;;5.53;1.60;;;;;;;;;;5075472;28;20541;-58
2023/05/30 08:51:16;;;;;;;5.50;1.87;;;;;;;;;;5075383;28;20448;-60
2023/05/30 08:53:49;;;;;;;4.83;1.90;;;;;;;;;;5075409;28;20472;-60
2023/05/30 08:56:21;;;;;;;2.80;1.60;;;;;;;;;;5074853;28;20481;-59
2023/05/30 08:58:50;;;;;;;2.63;1.70;;;;;;;;;;5074808;28;20878;-59
2023/05/30 09:01:17;;;;;;;3.43;1.33;;;;;;;;;;5075119;28;20474;-59
2023/05/30 09:03:47;;;;;;;2.70;1.33;;;;;;;;;;5075063;28;20451;-59
2023/05/30 09:06:14;;;;;;;2.30;1.60;;;;;;;;;;5074903;28;20448;-59
2023/05/30 09:08:43;;;;;;;3.80;1.70;;;;;;;;;;5074811;28;20592;-59
2023/05/30 09:11:14;;;;;;;3.30;1.50;;;;;;;;;;5070981;28;20451;-60
2023/05/30 09:13:43;;;;;;;4.70;1.77;;;;;;;;;;5074571;28;20443;-58
2023/05/30 09:16:10;;;;;;;3.70;1.90;;;;;;;;;;5073345;28;20494;-58
2023/05/30 09:18:41;;;;;;;3.30;1.40;;;;;;;;;;5074673;28;20845;-58
2023/05/30 09:21:08;;;;;;;3.60;2.40;;;;;;;;;;5074602;28;20546;-58
2023/05/30 09:23:36;;;;;;;6.53;1.93;;;;;;;;;;5074436;28;20878;-58
2023/05/30 09:26:04;;;;;;;2.40;1.80;;;;;;;;;;5074440;28;20451;-58
2023/05/30 09:28:34;;;;;;;2.70;1.63;;;;;;;;;;5074759;28;20451;-58
2023/05/30 09:31:03;;;;;;;2.27;1.90;;;;;;;;;;5074723;28;20933;-58
2023/05/30 09:33:43;;;;;;;3.30;3.00;;;;;;;;;;5074697;28;20985;-59
2023/05/30 09:36:12;;;;;;;4.57;1.50;;;;;;;;;;5074443;28;20485;-60
2023/05/30 09:38:39;;;;;;;2.37;2.03;;;;;;;;;;5074812;28;20500;-59
2023/05/30 09:41:06;;;;;;;3.63;1.77;;;;;;;;;;5074421;28;20485;-58
2023/05/30 09:43:39;;;;;;;3.83;1.63;;;;;;;;;;5074262;28;20485;-60
2023/05/30 09:46:08;;;;;;;1.77;1.33;;;;;;;;;;5074151;28;20546;-58
2023/05/30 09:48:35;;;;;;;3.10;2.17;;;;;;;;;;5073989;28;20822;-58
2023/05/30 09:51:03;;;;;;;5.33;1.73;;;;;;;;;;5074090;28;20824;-59
2023/05/30 09:53:30;;;;;;;2.93;1.63;;;;;;;;;;5074262;28;20476;-59
2023/05/30 09:55:57;;;;;;;1.83;1.60;;;;;;;;;;5074501;28;20451;-59
2023/05/30 09:58:25;;;;;;;3.27;2.13;;;;;;;;;;5074370;28;20447;-60
2023/05/30 10:00:54;;;;;;;2.27;1.70;;;;;;;;;;5073587;28;20472;-60
2023/05/30 10:03:21;;;;;;;1.93;1.77;;;;;;;;;;5073676;28;20534;-59
2023/05/30 10:05:50;;;;;;;3.90;1.57;;;;;;;;;;5073510;28;20535;-59
2023/05/30 10:08:17;;;;;;;2.10;1.30;;;;;;;;;;5073910;28;20807;-59
2023/05/30 10:10:44;;;;;;;3.70;1.73;;;;;;;;;;5073876;28;20527;-59
2023/05/30 10:13:11;;;;;;;3.40;1.47;;;;;;;;;;5073634;28;20444;-59
2023/05/30 10:15:39;;;;;;;1.97;1.60;;;;;;;;;;5073519;28;20452;-57
2023/05/30 10:18:08;;;;;;;1.80;1.60;;;;;;;;;;5073313;28;20573;-58
2023/05/30 10:20:40;;;;;;;2.40;1.63;;;;;;;;;;5073826;28;20789;-58
2023/05/30 10:23:08;;;;;;;3.83;1.77;;;;;;;;;;5072768;28;20451;-59
2023/05/30 10:25:36;;;;;;;4.97;1.80;;;;;;;;;;5072613;28;20520;-64
2023/05/30 10:28:04;;;;;;;2.20;1.60;;;;;;;;;;5073419;28;20444;-64
2023/05/30 10:30:32;;;;;;;4.53;1.80;;;;;;;;;;5073446;28;21022;-64
2023/05/30 10:33:01;;;;;;;3.00;2.00;;;;;;;;;;5072630;28;20449;-63
2023/05/30 10:35:31;;;;;;;2.17;1.73;;;;;;;;;;5073535;28;20189;-63
2023/05/30 10:37:59;;;;;;;6.77;1.80;;;;;;;;;;5073439;28;20908;-62
2023/05/30 10:40:30;;;;;;;2.90;2.60;;;;;;;;;;5073453;28;20542;-59
2023/05/30 10:43:04;;;;;;;2.40;1.67;;;;;;;;;;5073156;28;20806;-59
2023/05/30 10:45:38;;;;;;;3.17;1.50;;;;;;;;;;5073295;28;20444;-59
2023/05/30 10:48:11;;;;;;;2.10;1.50;;;;;;;;;;5073161;28;20458;-59
2023/05/30 10:50:41;;;;;;;2.37;1.90;;;;;;;;;;5073377;28;20539;-60
2023/05/30 10:53:13;;;;;;;5.53;1.40;;;;;;;;;;5073004;28;20890;-60
2023/05/30 10:55:44;;;;;;;2.43;1.73;;;;;;;;;;5073008;28;20456;-60
2023/05/30 10:58:30;;;;;;;3.80;1.30;;;;;;;;;;5072908;28;20567;-60
2023/05/30 11:00:57;;;;;;;3.43;1.57;;;;;;;;;;5073267;28;20458;-59
2023/05/30 11:03:37;;;;;;;3.00;1.50;;;;;;;;;;5072973;28;20498;-59
2023/05/30 11:06:06;;;;;;;2.50;1.57;;;;;;;;;;5072810;28;20814;-59
2023/05/30 11:08:38;;;;;;;3.17;2.03;;;;;;;;;;5073027;28;20535;-58
2023/05/30 11:11:16;;;;;;;4.30;2.37;;;;;;;;;;5072993;28;20444;-59
2023/05/30 11:13:44;;;;;;;6.23;2.80;;;;;;;;;;5072788;28;20443;-58
2023/05/30 11:16:21;;;;;;;2.13;1.93;;;;;;;;;;5072586;28;20450;-59
2023/05/30 11:18:50;;;;;;;3.17;1.80;;;;;;;;;;5072806;28;20490;-59
2023/05/30 11:21:38;;;;;;;3.73;1.50;;;;;;;;;;5072419;28;20444;-58
2023/05/30 11:24:05;;;;;;;2.57;1.60;;;;;;;;;;5070975;28;20450;-58
2023/05/30 11:26:47;;;;;;;7.90;2.20;;;;;;;;;;5072137;28;20450;-58
2023/05/30 11:29:29;;;;;;;4.27;2.40;;;;;;;;;;5070654;28;20475;-59
2023/05/30 11:31:56;;;;;;;3.77;1.60;;;;;;;;;;5057727;28;21026;-60
2023/05/30 11:34:23;;;;;;;1.80;1.47;;;;;;;;;;5071845;28;20531;-59
2023/05/30 11:36:52;;;;;;;5.17;2.53;;;;;;;;;;5072705;28;20444;-61
2023/05/30 11:39:20;;;;;;;2.53;1.63;;;;;;;;;;5072642;28;20455;-58
2023/05/30 11:41:50;;;;;;;1.33;1.23;;;;;;;;;;5072811;28;20452;-60
2023/05/30 11:44:17;;;;;;;2.70;1.80;;;;;;;;;;5072766;28;20534;-58
2023/05/30 11:46:44;;;;;;;5.07;2.57;;;;;;;;;;5072406;28;20596;-61
2023/05/30 11:49:11;;;;;;;3.27;1.60;;;;;;;;;;5073966;28;20527;-62
2023/05/30 11:51:39;;;;;;;3.00;1.60;;;;;;;;;;5071728;28;20852;-62
2023/05/30 11:54:10;;;;;;;3.40;1.60;;;;;;;;;;5071950;28;20499;-61
2023/05/30 11:56:38;;;;;;;6.47;1.80;;;;;;;;;;5072409;28;20517;-59
2023/05/30 11:59:07;;;;;;;3.43;2.10;;;;;;;;;;5071860;28;20535;-57
2023/05/30 12:01:36;;;;;;;4.87;2.13;;;;;;;;;;5071821;28;20448;-59
2023/05/30 12:04:05;;;;;;;3.70;1.80;;;;;;;;;;5072116;28;20448;-59
2023/05/30 12:06:33;;;;;;;3.10;1.53;;;;;;;;;;5072161;28;20475;-60
2023/05/30 12:09:00;;;;;;;3.50;1.93;;;;;;;;;;5072598;28;20459;-59
2023/05/30 12:11:28;;;;;;;4.50;1.90;;;;;;;;;;5072453;28;20478;-58
2023/05/30 12:13:57;;;;;;;3.77;1.50;;;;;;;;;;5072360;28;20535;-58
2023/05/30 12:16:24;;;;;;;7.87;3.40;;;;;;;;;;5072178;28;20446;-59
2023/05/30 12:18:51;;;;;;;4.97;2.00;;;;;;;;;;5072113;28;20501;-60
2023/05/30 12:21:18;;;;;;;3.67;1.80;;;;;;;;;;5072137;28;20451;-60
2023/05/30 12:23:46;;;;;;;3.40;2.00;;;;;;;;;;5071448;28;20470;-62
2023/05/30 12:26:19;;;;;;;2.27;1.60;;;;;;;;;;5071652;28;20440;-60
2023/05/30 12:28:49;;;;;;;1.73;1.50;;;;;;;;;;5069256;28;20440;-61
2023/05/30 12:31:22;;;;;;;3.57;1.60;;;;;;;;;;5071965;28;20542;-60
2023/05/30 12:33:49;;;;;;;2.63;2.07;;;;;;;;;;5072010;28;20544;-60
2023/05/30 12:36:16;;;;;;;2.90;1.43;;;;;;;;;;5072260;28;20513;-58
2023/05/30 12:38:43;;;;;;;2.00;1.60;;;;;;;;;;5071469;28;20505;-59
2023/05/30 12:41:10;;;;;;;5.77;2.23;;;;;;;;;;5071663;28;20440;-58
2023/05/30 12:43:38;;;;;;;2.13;1.93;;;;;;;;;;5071494;28;20448;-59
2023/05/30 12:46:09;;;;;;;2.53;1.87;;;;;;;;;;5072487;28;20531;-60
2023/05/30 12:48:36;;;;;;;6.83;1.93;;;;;;;;;;5077234;28;20497;-57
2023/05/30 12:51:03;;;;;;;3.70;1.97;;;;;;;;;;5075175;28;20531;-57
2023/05/30 12:53:30;;;;;;;5.33;1.43;;;;;;;;;;5055492;28;20560;-58
2023/05/30 12:55:57;;;;;;;4.50;1.50;;;;;;;;;;5055451;28;20449;-59
2023/05/30 12:58:26;;;;;;;3.77;1.90;;;;;;;;;;5057645;28;20481;-59
2023/05/30 13:00:53;;;;;;;2.80;1.77;;;;;;;;;;5075367;28;20535;-59
2023/05/30 13:03:21;;;;;;;2.22;1.92;;;;;;;;;;5073911;28;20542;-59
2023/05/30 13:05:48;;;;;;;3.37;1.70;;;;;;;;;;5093345;28;20215;-59
2023/05/30 13:08:15;;;;;;;4.70;1.50;;;;;;;;;;5095082;28;20516;-58
2023/05/30 13:10:42;;;;;;;3.67;1.50;;;;;;;;;;5092935;28;20535;-58
2023/05/30 13:13:09;;;;;;;2.10;1.60;;;;;;;;;;5095419;28;21010;-60
2023/05/30 13:15:36;;;;;;;2.03;1.70;;;;;;;;;;5095354;28;20546;-59
2023/05/30 13:18:03;;;;;;;3.37;1.53;;;;;;;;;;5095102;28;20506;-59
2023/05/30 13:20:34;;;;;;;3.70;1.80;;;;;;;;;;5093009;28;20443;-58
2023/05/30 13:23:01;;;;;;;7.23;1.90;;;;;;;;;;5093333;28;20541;-59
2023/05/30 13:25:28;;;;;;;4.43;1.63;;;;;;;;;;5093011;28;20861;-59
2023/05/30 13:27:55;;;;;;;6.43;1.70;;;;;;;;;;5093265;28;20529;-59
2023/05/30 13:30:22;;;;;;;4.00;1.73;;;;;;;;;;5092903;28;20443;-58
2023/05/30 13:32:49;;;;;;;1.57;1.47;;;;;;;;;;5093740;28;20542;-58
2023/05/30 13:35:15;;;;;;;2.90;1.70;;;;;;;;;;5094748;28;20533;-58
2023/05/30 13:37:44;;;;;;;1.90;1.70;;;;;;;;;;5094847;28;20467;-58
2023/05/30 13:40:11;;;;;;;5.83;1.83;;;;;;;;;;5094838;28;20450;-58
2023/05/30 13:42:38;;;;;;;1.80;1.63;;;;;;;;;;5094835;28;20494;-58
2023/05/30 13:45:06;;;;;;;4.23;1.87;;;;;;;;;;5095051;28;20810;-59
2023/05/30 13:47:32;;;;;;;4.30;1.73;;;;;;;;;;5094952;28;20462;-59
2023/05/30 13:49:59;;;;;;;3.30;1.63;;;;;;;;;;5094687;28;20533;-59
2023/05/30 13:52:26;;;;;;;3.17;1.80;;;;;;;;;;5094540;28;20443;-60
2023/05/30 13:54:55;;;;;;;3.07;1.60;;;;;;;;;;5094382;28;20492;-59
2023/05/30 13:57:21;;;;;;;2.97;1.60;;;;;;;;;;5094005;28;20451;-59
2023/05/30 13:59:49;;;;;;;2.93;1.97;;;;;;;;;;5094555;28;20478;-60
2023/05/30 14:02:15;;;;;;;4.60;1.80;;;;;;;;;;5094601;28;20443;-60
2023/05/30 14:04:43;;;;;;;2.37;1.50;;;;;;;;;;5094558;28;20443;-59
2023/05/30 14:07:10;;;;;;;2.63;1.33;;;;;;;;;;5094280;28;20458;-59
2023/05/30 14:09:37;;;;;;;3.77;1.80;;;;;;;;;;5094196;28;20939;-59
2023/05/30 14:12:06;;;;;;;1.73;1.50;;;;;;;;;;5094294;28;20534;-59
2023/05/30 14:14:33;;;;;;;4.70;1.80;;;;;;;;;;5094163;28;20451;-60
2023/05/30 14:17:02;;;;;;;10.40;2.43;;;;;;;;;;5094279;28;20902;-59
2023/05/30 14:19:31;;;;;;;4.97;1.80;;;;;;;;;;5093926;28;20478;-61
2023/05/30 14:21:58;;;;;;;3.83;2.00;;;;;;;;;;5094366;28;20537;-60
2023/05/30 14:24:25;;;;;;;5.73;2.30;;;;;;;;;;5094166;28;20458;-58
2023/05/30 14:26:52;;;;;;;3.63;1.30;;;;;;;;;;5094155;28;20512;-60
2023/05/30 14:29:21;;;;;;;1.60;1.40;;;;;;;;;;5094092;28;20504;-58
2023/05/30 14:31:48;;;;;;;3.20;1.70;;;;;;;;;;5093984;28;20447;-58
2023/05/30 14:34:15;;;;;;;6.13;2.23;;;;;;;;;;5093756;28;20446;-58
2023/05/30 14:36:42;;;;;;;2.10;1.87;;;;;;;;;;5093989;28;20443;-58
2023/05/30 14:39:11;;;;;;;2.30;1.67;;;;;;;;;;5093887;28;20846;-59
2023/05/30 14:41:37;;;;;;;1.93;1.63;;;;;;;;;;5093720;28;21015;-59
2023/05/30 14:44:05;;;;;;;3.63;2.27;;;;;;;;;;5093590;28;20569;-59
2023/05/30 14:46:33;;;;;;;4.73;1.70;;;;;;;;;;5093565;28;20462;-59
2023/05/30 14:49:00;;;;;;;3.73;2.00;;;;;;;;;;5093534;28;20451;-59
2023/05/30 14:51:27;;;;;;;2.10;1.47;;;;;;;;;;5093810;28;20454;-59